sensor_id;sensor_type;location;lat;lon;timestamp;P1;durP1;ratioP1;P2;durP2;ratioP2
19566;SDS011;9930;49.240;8.548;2024-01-11T00:02:07;17.70;;;12.20;;
19566;SDS011;9930;49.240;8.548;2024-01-11T00:04:33;18.10;;;12.90;;
19566;SDS011;9930;49.240;8.548;2024-01-11T00:07:08;18.13;;;12.13;;
19566;SDS011;9930;49.240;8.548;2024-01-11T00:09:43;15.90;;;11.57;;
19566;SDS011;9930;49.240;8.548;2024-01-11T00:12:12;16.00;;;11.40;;
19566;SDS011;9930;49.240;8.548;2024-01-11T00:14:38;18.03;;;12.77;;
19566;SDS011;9930;49.240;8.548;2024-01-11T00:17:39;20.20;;;13.40;;
19566;SDS011;9930;49.240;8.548;2024-01-11T00:20:11;18.43;;;13.00;;
19566;SDS011;9930;49.240;8.548;2024-01-11T00:22:37;17.27;;;13.33;;
19566;SDS011;9930;49.240;8.548;2024-01-11T00:25:07;19.73;;;13.63;;
19566;SDS011;9930;49.240;8.548;2024-01-11T00:28:06;19.30;;;13.50;;
19566;SDS011;9930;49.240;8.548;2024-01-11T00:31:11;17.97;;;13.13;;
19566;SDS011;9930;49.240;8.548;2024-01-11T00:33:43;17.37;;;12.27;;
19566;SDS011;9930;49.240;8.548;2024-01-11T00:36:14;18.17;;;12.77;;
19566;SDS011;9930;49.240;8.548;2024-01-11T00:39:20;18.57;;;12.90;;
19566;SDS011;9930;49.240;8.548;2024-01-11T00:42:14;18.40;;;12.87;;
19566;SDS011;9930;49.240;8.548;2024-01-11T00:44:43;19.33;;;13.20;;
19566;SDS011;9930;49.240;8.548;2024-01-11T00:47:31;18.77;;;13.00;;
19566;SDS011;9930;49.240;8.548;2024-01-11T00:50:02;18.37;;;13.30;;
19566;SDS011;9930;49.240;8.548;2024-01-11T00:52:35;18.73;;;13.90;;
19566;SDS011;9930;49.240;8.548;2024-01-11T00:55:15;17.27;;;13.33;;
19566;SDS011;9930;49.240;8.548;2024-01-11T00:57:50;19.27;;;13.13;;
19566;SDS011;9930;49.240;8.548;2024-01-11T01:00:16;17.40;;;13.03;;
19566;SDS011;9930;49.240;8.548;2024-01-11T01:02:42;19.73;;;13.33;;
19566;SDS011;9930;49.240;8.548;2024-01-11T01:05:42;19.57;;;13.57;;
19566;SDS011;9930;49.240;8.548;2024-01-11T01:08:10;20.40;;;13.13;;
19566;SDS011;9930;49.240;8.548;2024-01-11T01:10:52;18.90;;;13.40;;
19566;SDS011;9930;49.240;8.548;2024-01-11T01:13:47;19.60;;;14.00;;
19566;SDS011;9930;49.240;8.548;2024-01-11T01:16:45;19.37;;;12.43;;
19566;SDS011;9930;49.240;8.548;2024-01-11T01:19:16;19.13;;;12.90;;
19566;SDS011;9930;49.240;8.548;2024-01-11T01:21:58;17.10;;;12.97;;
19566;SDS011;9930;49.240;8.548;2024-01-11T01:24:23;17.57;;;13.17;;
19566;SDS011;9930;49.240;8.548;2024-01-11T01:26:55;20.50;;;14.27;;
19566;SDS011;9930;49.240;8.548;2024-01-11T01:29:21;18.50;;;13.77;;
19566;SDS011;9930;49.240;8.548;2024-01-11T01:31:49;20.10;;;14.03;;
19566;SDS011;9930;49.240;8.548;2024-01-11T01:34:15;19.20;;;14.03;;
19566;SDS011;9930;49.240;8.548;2024-01-11T01:36:41;18.83;;;13.43;;
19566;SDS011;9930;49.240;8.548;2024-01-11T01:39:15;18.10;;;13.50;;
19566;SDS011;9930;49.240;8.548;2024-01-11T01:41:43;17.83;;;12.83;;
19566;SDS011;9930;49.240;8.548;2024-01-11T01:44:12;19.43;;;13.30;;
19566;SDS011;9930;49.240;8.548;2024-01-11T01:46:43;17.53;;;12.93;;
19566;SDS011;9930;49.240;8.548;2024-01-11T01:49:12;18.57;;;13.27;;
19566;SDS011;9930;49.240;8.548;2024-01-11T01:51:38;18.10;;;13.27;;
19566;SDS011;9930;49.240;8.548;2024-01-11T01:54:14;21.43;;;12.87;;
19566;SDS011;9930;49.240;8.548;2024-01-11T01:56:47;19.03;;;12.60;;
19566;SDS011;9930;49.240;8.548;2024-01-11T01:59:14;18.37;;;12.97;;
19566;SDS011;9930;49.240;8.548;2024-01-11T02:01:43;20.03;;;13.10;;
19566;SDS011;9930;49.240;8.548;2024-01-11T02:04:12;19.57;;;12.87;;
19566;SDS011;9930;49.240;8.548;2024-01-11T02:06:47;19.00;;;12.50;;
19566;SDS011;9930;49.240;8.548;2024-01-11T02:09:14;20.27;;;13.70;;
19566;SDS011;9930;49.240;8.548;2024-01-11T02:11:42;26.27;;;16.33;;
19566;SDS011;9930;49.240;8.548;2024-01-11T02:14:13;22.63;;;15.63;;
19566;SDS011;9930;49.240;8.548;2024-01-11T02:16:41;20.47;;;14.60;;
19566;SDS011;9930;49.240;8.548;2024-01-11T02:19:12;21.13;;;14.90;;
19566;SDS011;9930;49.240;8.548;2024-01-11T02:21:43;21.67;;;14.47;;
19566;SDS011;9930;49.240;8.548;2024-01-11T02:24:13;18.97;;;13.77;;
19566;SDS011;9930;49.240;8.548;2024-01-11T02:29:30;18.20;;;12.37;;
19566;SDS011;9930;49.240;8.548;2024-01-11T02:31:57;17.63;;;13.23;;
19566;SDS011;9930;49.240;8.548;2024-01-11T02:34:26;21.63;;;13.77;;
19566;SDS011;9930;49.240;8.548;2024-01-11T02:36:53;17.87;;;12.67;;
19566;SDS011;9930;49.240;8.548;2024-01-11T02:39:20;17.60;;;12.83;;
19566;SDS011;9930;49.240;8.548;2024-01-11T02:41:48;18.33;;;12.03;;
19566;SDS011;9930;49.240;8.548;2024-01-11T02:44:16;16.60;;;12.23;;
19566;SDS011;9930;49.240;8.548;2024-01-11T02:46:44;17.77;;;13.17;;
19566;SDS011;9930;49.240;8.548;2024-01-11T02:49:12;17.40;;;12.47;;
19566;SDS011;9930;49.240;8.548;2024-01-11T02:51:38;19.60;;;13.10;;
19566;SDS011;9930;49.240;8.548;2024-01-11T02:54:08;20.83;;;13.73;;
19566;SDS011;9930;49.240;8.548;2024-01-11T02:56:33;20.33;;;13.60;;
19566;SDS011;9930;49.240;8.548;2024-01-11T02:59:01;20.90;;;14.07;;
19566;SDS011;9930;49.240;8.548;2024-01-11T03:01:27;19.77;;;13.43;;
19566;SDS011;9930;49.240;8.548;2024-01-11T03:03:53;20.00;;;13.03;;
19566;SDS011;9930;49.240;8.548;2024-01-11T03:06:22;18.40;;;13.17;;
19566;SDS011;9930;49.240;8.548;2024-01-11T03:08:53;19.27;;;13.43;;
19566;SDS011;9930;49.240;8.548;2024-01-11T03:11:19;20.33;;;13.57;;
19566;SDS011;9930;49.240;8.548;2024-01-11T03:13:45;18.87;;;12.60;;
19566;SDS011;9930;49.240;8.548;2024-01-11T03:16:11;18.17;;;12.67;;
19566;SDS011;9930;49.240;8.548;2024-01-11T03:18:37;20.77;;;14.07;;
19566;SDS011;9930;49.240;8.548;2024-01-11T03:21:08;15.90;;;12.50;;
19566;SDS011;9930;49.240;8.548;2024-01-11T03:23:37;19.40;;;12.70;;
19566;SDS011;9930;49.240;8.548;2024-01-11T03:26:02;19.73;;;13.03;;
19566;SDS011;9930;49.240;8.548;2024-01-11T03:28:28;19.47;;;14.00;;
19566;SDS011;9930;49.240;8.548;2024-01-11T03:30:54;18.47;;;12.83;;
19566;SDS011;9930;49.240;8.548;2024-01-11T03:33:22;20.77;;;13.83;;
19566;SDS011;9930;49.240;8.548;2024-01-11T03:35:50;21.57;;;13.30;;
19566;SDS011;9930;49.240;8.548;2024-01-11T03:38:15;19.17;;;13.10;;
19566;SDS011;9930;49.240;8.548;2024-01-11T03:40:41;19.93;;;13.43;;
19566;SDS011;9930;49.240;8.548;2024-01-11T03:43:13;20.37;;;13.20;;
19566;SDS011;9930;49.240;8.548;2024-01-11T03:45:43;17.70;;;13.17;;
19566;SDS011;9930;49.240;8.548;2024-01-11T03:48:14;18.03;;;12.60;;
19566;SDS011;9930;49.240;8.548;2024-01-11T03:50:40;20.23;;;12.73;;
19566;SDS011;9930;49.240;8.548;2024-01-11T03:53:12;19.20;;;13.00;;
19566;SDS011;9930;49.240;8.548;2024-01-11T03:55:43;20.27;;;13.40;;
19566;SDS011;9930;49.240;8.548;2024-01-11T03:58:15;21.00;;;13.13;;
19566;SDS011;9930;49.240;8.548;2024-01-11T04:00:43;19.73;;;12.67;;
19566;SDS011;9930;49.240;8.548;2024-01-11T04:03:15;18.77;;;12.33;;
19566;SDS011;9930;49.240;8.548;2024-01-11T04:05:44;16.43;;;12.60;;
19566;SDS011;9930;49.240;8.548;2024-01-11T04:08:14;20.00;;;13.03;;
19566;SDS011;9930;49.240;8.548;2024-01-11T04:10:41;18.23;;;12.50;;
19566;SDS011;9930;49.240;8.548;2024-01-11T04:13:16;22.03;;;14.13;;
19566;SDS011;9930;49.240;8.548;2024-01-11T04:15:46;17.07;;;12.97;;
19566;SDS011;9930;49.240;8.548;2024-01-11T04:18:14;20.00;;;14.13;;
19566;SDS011;9930;49.240;8.548;2024-01-11T04:20:42;17.70;;;12.90;;
19566;SDS011;9930;49.240;8.548;2024-01-11T04:23:13;19.07;;;12.77;;
19566;SDS011;9930;49.240;8.548;2024-01-11T04:25:41;21.47;;;13.20;;
19566;SDS011;9930;49.240;8.548;2024-01-11T04:28:15;19.13;;;12.90;;
19566;SDS011;9930;49.240;8.548;2024-01-11T04:30:44;18.83;;;13.20;;
19566;SDS011;9930;49.240;8.548;2024-01-11T04:33:12;19.07;;;13.27;;
19566;SDS011;9930;49.240;8.548;2024-01-11T04:35:38;17.77;;;12.30;;
19566;SDS011;9930;49.240;8.548;2024-01-11T04:38:13;18.87;;;12.97;;
19566;SDS011;9930;49.240;8.548;2024-01-11T04:40:41;19.00;;;13.40;;
19566;SDS011;9930;49.240;8.548;2024-01-11T04:43:07;18.77;;;13.10;;
19566;SDS011;9930;49.240;8.548;2024-01-11T04:45:36;18.40;;;12.87;;
19566;SDS011;9930;49.240;8.548;2024-01-11T04:48:02;20.17;;;13.30;;
19566;SDS011;9930;49.240;8.548;2024-01-11T04:50:27;18.60;;;13.00;;
19566;SDS011;9930;49.240;8.548;2024-01-11T04:52:53;20.90;;;13.63;;
19566;SDS011;9930;49.240;8.548;2024-01-11T04:55:19;17.93;;;12.77;;
19566;SDS011;9930;49.240;8.548;2024-01-11T04:57:47;20.90;;;13.03;;
19566;SDS011;9930;49.240;8.548;2024-01-11T05:00:13;20.00;;;12.60;;
19566;SDS011;9930;49.240;8.548;2024-01-11T05:02:42;18.93;;;12.97;;
19566;SDS011;9930;49.240;8.548;2024-01-11T05:05:13;20.87;;;13.03;;
19566;SDS011;9930;49.240;8.548;2024-01-11T05:07:42;19.20;;;13.53;;
19566;SDS011;9930;49.240;8.548;2024-01-11T05:10:11;19.07;;;13.00;;
19566;SDS011;9930;49.240;8.548;2024-01-11T05:12:37;19.13;;;13.40;;
19566;SDS011;9930;49.240;8.548;2024-01-11T05:15:05;18.83;;;13.27;;
19566;SDS011;9930;49.240;8.548;2024-01-11T05:17:47;20.53;;;13.07;;
19566;SDS011;9930;49.240;8.548;2024-01-11T05:20:14;18.67;;;12.90;;
19566;SDS011;9930;49.240;8.548;2024-01-11T05:22:43;18.40;;;12.87;;
19566;SDS011;9930;49.240;8.548;2024-01-11T05:25:15;18.83;;;13.57;;
19566;SDS011;9930;49.240;8.548;2024-01-11T05:27:47;18.60;;;13.00;;
19566;SDS011;9930;49.240;8.548;2024-01-11T05:30:14;20.10;;;13.57;;
19566;SDS011;9930;49.240;8.548;2024-01-11T05:32:43;18.97;;;13.47;;
19566;SDS011;9930;49.240;8.548;2024-01-11T05:35:11;21.17;;;13.87;;
19566;SDS011;9930;49.240;8.548;2024-01-11T05:37:37;17.70;;;12.93;;
19566;SDS011;9930;49.240;8.548;2024-01-11T05:40:03;20.23;;;13.87;;
19566;SDS011;9930;49.240;8.548;2024-01-11T05:42:29;23.23;;;14.83;;
19566;SDS011;9930;49.240;8.548;2024-01-11T05:44:57;25.50;;;16.73;;
19566;SDS011;9930;49.240;8.548;2024-01-11T05:47:22;25.87;;;18.87;;
19566;SDS011;9930;49.240;8.548;2024-01-11T05:49:48;23.03;;;16.57;;
19566;SDS011;9930;49.240;8.548;2024-01-11T05:52:15;22.50;;;14.83;;
19566;SDS011;9930;49.240;8.548;2024-01-11T05:54:41;19.63;;;13.93;;
19566;SDS011;9930;49.240;8.548;2024-01-11T05:57:11;18.53;;;14.13;;
19566;SDS011;9930;49.240;8.548;2024-01-11T05:59:43;22.47;;;14.07;;
19566;SDS011;9930;49.240;8.548;2024-01-11T06:02:12;20.73;;;13.97;;
19566;SDS011;9930;49.240;8.548;2024-01-11T06:04:43;20.70;;;14.10;;
19566;SDS011;9930;49.240;8.548;2024-01-11T06:07:13;18.33;;;12.77;;
19566;SDS011;9930;49.240;8.548;2024-01-11T06:09:43;18.70;;;14.10;;
19566;SDS011;9930;49.240;8.548;2024-01-11T06:12:13;19.23;;;14.43;;
19566;SDS011;9930;49.240;8.548;2024-01-11T06:14:43;19.67;;;14.43;;
19566;SDS011;9930;49.240;8.548;2024-01-11T06:17:15;23.20;;;15.43;;
19566;SDS011;9930;49.240;8.548;2024-01-11T06:19:43;20.70;;;15.77;;
19566;SDS011;9930;49.240;8.548;2024-01-11T06:22:16;23.10;;;15.50;;
19566;SDS011;9930;49.240;8.548;2024-01-11T06:24:44;15.97;;;12.50;;
19566;SDS011;9930;49.240;8.548;2024-01-11T06:27:11;19.37;;;14.07;;
19566;SDS011;9930;49.240;8.548;2024-01-11T06:29:42;19.53;;;13.50;;
19566;SDS011;9930;49.240;8.548;2024-01-11T06:32:11;21.73;;;14.53;;
19566;SDS011;9930;49.240;8.548;2024-01-11T06:34:37;21.73;;;14.73;;
19566;SDS011;9930;49.240;8.548;2024-01-11T06:37:12;20.33;;;14.20;;
19566;SDS011;9930;49.240;8.548;2024-01-11T06:40:13;18.93;;;13.47;;
19566;SDS011;9930;49.240;8.548;2024-01-11T06:42:45;21.80;;;14.50;;
19566;SDS011;9930;49.240;8.548;2024-01-11T06:45:13;20.97;;;13.30;;
19566;SDS011;9930;49.240;8.548;2024-01-11T06:47:43;21.33;;;14.53;;
19566;SDS011;9930;49.240;8.548;2024-01-11T06:50:12;19.00;;;13.43;;
19566;SDS011;9930;49.240;8.548;2024-01-11T06:52:38;18.00;;;12.93;;
19566;SDS011;9930;49.240;8.548;2024-01-11T06:55:05;20.93;;;14.23;;
19566;SDS011;9930;49.240;8.548;2024-01-11T06:57:42;19.30;;;14.63;;
19566;SDS011;9930;49.240;8.548;2024-01-11T07:01:07;19.63;;;14.20;;
19566;SDS011;9930;49.240;8.548;2024-01-11T07:03:56;21.67;;;15.03;;
19566;SDS011;9930;49.240;8.548;2024-01-11T07:06:45;23.87;;;16.00;;
19566;SDS011;9930;49.240;8.548;2024-01-11T07:09:14;20.77;;;14.93;;
19566;SDS011;9930;49.240;8.548;2024-01-11T07:11:42;21.13;;;14.70;;
19566;SDS011;9930;49.240;8.548;2024-01-11T07:14:11;22.23;;;15.53;;
19566;SDS011;9930;49.240;8.548;2024-01-11T07:16:38;21.80;;;14.33;;
19566;SDS011;9930;49.240;8.548;2024-01-11T07:19:09;18.83;;;14.30;;
19566;SDS011;9930;49.240;8.548;2024-01-11T07:21:46;20.20;;;14.93;;
19566;SDS011;9930;49.240;8.548;2024-01-11T07:24:20;21.67;;;14.43;;
19566;SDS011;9930;49.240;8.548;2024-01-11T07:27:05;19.00;;;13.87;;
19566;SDS011;9930;49.240;8.548;2024-01-11T07:29:38;21.27;;;15.00;;
19566;SDS011;9930;49.240;8.548;2024-01-11T07:32:09;20.27;;;15.03;;
19566;SDS011;9930;49.240;8.548;2024-01-11T07:34:35;20.87;;;14.27;;
19566;SDS011;9930;49.240;8.548;2024-01-11T07:37:10;20.83;;;14.77;;
19566;SDS011;9930;49.240;8.548;2024-01-11T07:39:38;21.37;;;14.50;;
19566;SDS011;9930;49.240;8.548;2024-01-11T07:42:04;25.03;;;16.57;;
19566;SDS011;9930;49.240;8.548;2024-01-11T07:44:39;22.03;;;15.47;;
19566;SDS011;9930;49.240;8.548;2024-01-11T07:47:05;21.10;;;15.33;;
19566;SDS011;9930;49.240;8.548;2024-01-11T07:49:31;21.97;;;14.43;;
19566;SDS011;9930;49.240;8.548;2024-01-11T07:52:07;18.50;;;13.63;;
19566;SDS011;9930;49.240;8.548;2024-01-11T07:54:33;20.57;;;14.07;;
19566;SDS011;9930;49.240;8.548;2024-01-11T07:57:02;21.50;;;14.67;;
19566;SDS011;9930;49.240;8.548;2024-01-11T07:59:34;22.77;;;14.67;;
19566;SDS011;9930;49.240;8.548;2024-01-11T08:02:01;20.37;;;14.10;;
19566;SDS011;9930;49.240;8.548;2024-01-11T08:04:27;23.13;;;14.40;;
19566;SDS011;9930;49.240;8.548;2024-01-11T08:06:53;19.90;;;14.00;;
19566;SDS011;9930;49.240;8.548;2024-01-11T08:09:24;20.40;;;13.63;;
19566;SDS011;9930;49.240;8.548;2024-01-11T08:11:51;22.03;;;14.87;;
19566;SDS011;9930;49.240;8.548;2024-01-11T08:14:25;22.27;;;15.17;;
19566;SDS011;9930;49.240;8.548;2024-01-11T08:16:51;22.83;;;15.53;;
19566;SDS011;9930;49.240;8.548;2024-01-11T08:19:18;20.00;;;14.53;;
19566;SDS011;9930;49.240;8.548;2024-01-11T08:21:44;19.93;;;14.67;;
19566;SDS011;9930;49.240;8.548;2024-01-11T08:24:10;21.33;;;14.53;;
19566;SDS011;9930;49.240;8.548;2024-01-11T08:26:38;20.73;;;15.40;;
19566;SDS011;9930;49.240;8.548;2024-01-11T08:29:04;20.27;;;13.13;;
19566;SDS011;9930;49.240;8.548;2024-01-11T08:31:30;20.57;;;14.60;;
19566;SDS011;9930;49.240;8.548;2024-01-11T08:34:02;19.93;;;14.10;;
19566;SDS011;9930;49.240;8.548;2024-01-11T08:36:33;20.20;;;13.70;;
19566;SDS011;9930;49.240;8.548;2024-01-11T08:39:01;18.67;;;13.83;;
19566;SDS011;9930;49.240;8.548;2024-01-11T08:41:31;18.57;;;12.63;;
19566;SDS011;9930;49.240;8.548;2024-01-11T08:44:03;19.23;;;13.50;;
19566;SDS011;9930;49.240;8.548;2024-01-11T08:46:39;21.03;;;13.73;;
19566;SDS011;9930;49.240;8.548;2024-01-11T08:49:05;19.73;;;13.93;;
19566;SDS011;9930;49.240;8.548;2024-01-11T08:51:31;18.77;;;13.80;;
19566;SDS011;9930;49.240;8.548;2024-01-11T08:53:58;21.77;;;15.87;;
19566;SDS011;9930;49.240;8.548;2024-01-11T08:56:24;23.50;;;15.23;;
19566;SDS011;9930;49.240;8.548;2024-01-11T08:58:50;23.93;;;15.37;;
19566;SDS011;9930;49.240;8.548;2024-01-11T09:01:16;21.17;;;14.87;;
19566;SDS011;9930;49.240;8.548;2024-01-11T09:03:45;21.00;;;14.37;;
19566;SDS011;9930;49.240;8.548;2024-01-11T09:06:12;23.80;;;15.10;;
19566;SDS011;9930;49.240;8.548;2024-01-11T09:08:39;20.40;;;14.87;;
19566;SDS011;9930;49.240;8.548;2024-01-11T09:11:07;21.63;;;14.50;;
19566;SDS011;9930;49.240;8.548;2024-01-11T09:13:32;22.17;;;15.63;;
19566;SDS011;9930;49.240;8.548;2024-01-11T09:15:58;19.60;;;14.87;;
19566;SDS011;9930;49.240;8.548;2024-01-11T09:18:29;24.80;;;16.67;;
19566;SDS011;9930;49.240;8.548;2024-01-11T09:20:55;24.43;;;16.67;;
19566;SDS011;9930;49.240;8.548;2024-01-11T09:23:21;22.87;;;15.30;;
19566;SDS011;9930;49.240;8.548;2024-01-11T09:25:53;23.60;;;15.93;;
19566;SDS011;9930;49.240;8.548;2024-01-11T09:28:18;25.07;;;16.60;;
19566;SDS011;9930;49.240;8.548;2024-01-11T09:30:46;22.83;;;15.63;;
19566;SDS011;9930;49.240;8.548;2024-01-11T09:33:12;22.07;;;16.00;;
19566;SDS011;9930;49.240;8.548;2024-01-11T09:35:38;20.67;;;15.30;;
19566;SDS011;9930;49.240;8.548;2024-01-11T09:38:06;21.67;;;15.70;;
19566;SDS011;9930;49.240;8.548;2024-01-11T09:40:32;20.47;;;15.80;;
19566;SDS011;9930;49.240;8.548;2024-01-11T09:42:58;22.83;;;16.03;;
19566;SDS011;9930;49.240;8.548;2024-01-11T09:45:24;22.57;;;16.37;;
19566;SDS011;9930;49.240;8.548;2024-01-11T09:47:51;21.53;;;15.77;;
19566;SDS011;9930;49.240;8.548;2024-01-11T09:50:20;23.07;;;16.13;;
19566;SDS011;9930;49.240;8.548;2024-01-11T09:52:54;21.43;;;15.43;;
19566;SDS011;9930;49.240;8.548;2024-01-11T09:55:23;22.53;;;15.70;;
19566;SDS011;9930;49.240;8.548;2024-01-11T09:57:51;22.33;;;15.83;;
19566;SDS011;9930;49.240;8.548;2024-01-11T10:00:22;20.83;;;14.53;;
19566;SDS011;9930;49.240;8.548;2024-01-11T10:02:53;19.90;;;15.27;;
19566;SDS011;9930;49.240;8.548;2024-01-11T10:05:22;20.13;;;14.27;;
19566;SDS011;9930;49.240;8.548;2024-01-11T10:08:07;21.47;;;15.63;;
19566;SDS011;9930;49.240;8.548;2024-01-11T10:10:34;21.60;;;15.93;;
19566;SDS011;9930;49.240;8.548;2024-01-11T10:13:03;24.07;;;16.77;;
19566;SDS011;9930;49.240;8.548;2024-01-11T10:15:32;21.40;;;15.67;;
19566;SDS011;9930;49.240;8.548;2024-01-11T10:18:08;23.10;;;15.53;;
19566;SDS011;9930;49.240;8.548;2024-01-11T10:20:37;22.20;;;16.53;;
19566;SDS011;9930;49.240;8.548;2024-01-11T10:23:06;22.10;;;16.47;;
19566;SDS011;9930;49.240;8.548;2024-01-11T10:25:32;22.70;;;16.17;;
19566;SDS011;9930;49.240;8.548;2024-01-11T10:28:05;22.57;;;16.63;;
19566;SDS011;9930;49.240;8.548;2024-01-11T10:30:45;20.57;;;16.13;;
19566;SDS011;9930;49.240;8.548;2024-01-11T10:33:18;25.27;;;17.77;;
19566;SDS011;9930;49.240;8.548;2024-01-11T10:35:48;22.50;;;17.13;;
19566;SDS011;9930;49.240;8.548;2024-01-11T10:38:15;22.83;;;16.87;;
19566;SDS011;9930;49.240;8.548;2024-01-11T10:40:46;21.30;;;16.17;;
19566;SDS011;9930;49.240;8.548;2024-01-11T10:43:19;22.40;;;16.83;;
19566;SDS011;9930;49.240;8.548;2024-01-11T10:45:50;22.57;;;16.97;;
19566;SDS011;9930;49.240;8.548;2024-01-11T10:48:33;20.27;;;16.97;;
19566;SDS011;9930;49.240;8.548;2024-01-11T10:51:09;22.70;;;16.93;;
19566;SDS011;9930;49.240;8.548;2024-01-11T10:56:12;22.70;;;18.30;;
19566;SDS011;9930;49.240;8.548;2024-01-11T10:58:41;24.10;;;17.63;;
19566;SDS011;9930;49.240;8.548;2024-01-11T11:01:12;21.60;;;17.47;;
19566;SDS011;9930;49.240;8.548;2024-01-11T11:03:38;24.93;;;17.77;;
19566;SDS011;9930;49.240;8.548;2024-01-11T11:06:09;22.60;;;17.10;;
19566;SDS011;9930;49.240;8.548;2024-01-11T11:08:37;22.97;;;17.20;;
19566;SDS011;9930;49.240;8.548;2024-01-11T11:11:08;22.37;;;17.37;;
19566;SDS011;9930;49.240;8.548;2024-01-11T11:13:36;22.50;;;17.10;;
19566;SDS011;9930;49.240;8.548;2024-01-11T11:16:07;24.77;;;17.50;;
19566;SDS011;9930;49.240;8.548;2024-01-11T11:18:33;23.13;;;17.53;;
19566;SDS011;9930;49.240;8.548;2024-01-11T11:21:11;24.17;;;17.97;;
19566;SDS011;9930;49.240;8.548;2024-01-11T11:23:40;26.00;;;19.40;;
19566;SDS011;9930;49.240;8.548;2024-01-11T11:26:14;23.53;;;17.10;;
19566;SDS011;9930;49.240;8.548;2024-01-11T11:28:42;22.47;;;17.07;;
19566;SDS011;9930;49.240;8.548;2024-01-11T11:31:17;24.33;;;17.67;;
19566;SDS011;9930;49.240;8.548;2024-01-11T11:34:40;23.00;;;16.77;;
19566;SDS011;9930;49.240;8.548;2024-01-11T11:37:10;19.97;;;15.80;;
19566;SDS011;9930;49.240;8.548;2024-01-11T11:39:50;22.40;;;17.30;;
19566;SDS011;9930;49.240;8.548;2024-01-11T11:42:30;24.73;;;17.57;;
19566;SDS011;9930;49.240;8.548;2024-01-11T11:44:56;23.37;;;16.90;;
19566;SDS011;9930;49.240;8.548;2024-01-11T11:47:25;23.20;;;16.63;;
19566;SDS011;9930;49.240;8.548;2024-01-11T11:50:10;21.93;;;16.13;;
19566;SDS011;9930;49.240;8.548;2024-01-11T11:52:41;21.83;;;16.90;;
19566;SDS011;9930;49.240;8.548;2024-01-11T11:55:15;22.20;;;17.23;;
19566;SDS011;9930;49.240;8.548;2024-01-11T11:57:42;21.10;;;16.60;;
19566;SDS011;9930;49.240;8.548;2024-01-11T12:00:11;21.57;;;16.57;;
19566;SDS011;9930;49.240;8.548;2024-01-11T12:02:42;19.57;;;15.77;;
19566;SDS011;9930;49.240;8.548;2024-01-11T12:05:12;22.40;;;16.10;;
19566;SDS011;9930;49.240;8.548;2024-01-11T12:07:41;23.77;;;17.33;;
19566;SDS011;9930;49.240;8.548;2024-01-11T12:10:11;21.47;;;16.40;;
19566;SDS011;9930;49.240;8.548;2024-01-11T12:12:40;22.33;;;16.50;;
19566;SDS011;9930;49.240;8.548;2024-01-11T12:15:08;21.23;;;16.33;;
19566;SDS011;9930;49.240;8.548;2024-01-11T12:17:38;20.33;;;16.53;;
19566;SDS011;9930;49.240;8.548;2024-01-11T12:20:11;23.07;;;17.73;;
19566;SDS011;9930;49.240;8.548;2024-01-11T12:22:39;23.73;;;16.73;;
19566;SDS011;9930;49.240;8.548;2024-01-11T12:25:13;23.80;;;18.23;;
19566;SDS011;9930;49.240;8.548;2024-01-11T12:27:39;19.10;;;16.10;;
19566;SDS011;9930;49.240;8.548;2024-01-11T12:30:22;22.23;;;17.03;;
19566;SDS011;9930;49.240;8.548;2024-01-11T12:32:51;23.23;;;17.73;;
19566;SDS011;9930;49.240;8.548;2024-01-11T12:35:20;23.10;;;17.37;;
19566;SDS011;9930;49.240;8.548;2024-01-11T12:38:05;23.55;;;17.27;;
19566;SDS011;9930;49.240;8.548;2024-01-11T12:40:45;22.47;;;17.00;;
19566;SDS011;9930;49.240;8.548;2024-01-11T12:43:14;24.23;;;18.57;;
19566;SDS011;9930;49.240;8.548;2024-01-11T12:45:46;22.97;;;17.07;;
19566;SDS011;9930;49.240;8.548;2024-01-11T12:48:19;25.90;;;18.27;;
19566;SDS011;9930;49.240;8.548;2024-01-11T12:50:46;25.47;;;18.73;;
19566;SDS011;9930;49.240;8.548;2024-01-11T12:53:15;24.80;;;19.40;;
19566;SDS011;9930;49.240;8.548;2024-01-11T12:55:47;23.13;;;18.57;;
19566;SDS011;9930;49.240;8.548;2024-01-11T12:58:28;21.30;;;17.67;;
19566;SDS011;9930;49.240;8.548;2024-01-11T13:00:54;22.53;;;17.27;;
19566;SDS011;9930;49.240;8.548;2024-01-11T13:03:22;25.93;;;17.80;;
19566;SDS011;9930;49.240;8.548;2024-01-11T13:05:53;20.93;;;17.00;;
19566;SDS011;9930;49.240;8.548;2024-01-11T13:08:24;23.17;;;17.53;;
19566;SDS011;9930;49.240;8.548;2024-01-11T13:11:01;26.37;;;18.83;;
19566;SDS011;9930;49.240;8.548;2024-01-11T13:13:41;24.87;;;18.93;;
19566;SDS011;9930;49.240;8.548;2024-01-11T13:16:14;25.93;;;19.63;;
19566;SDS011;9930;49.240;8.548;2024-01-11T13:18:48;24.57;;;18.63;;
19566;SDS011;9930;49.240;8.548;2024-01-11T13:21:19;24.23;;;19.13;;
19566;SDS011;9930;49.240;8.548;2024-01-11T13:24:04;26.50;;;19.33;;
19566;SDS011;9930;49.240;8.548;2024-01-11T13:26:44;26.87;;;20.07;;
19566;SDS011;9930;49.240;8.548;2024-01-11T13:29:13;26.47;;;20.37;;
19566;SDS011;9930;49.240;8.548;2024-01-11T13:31:43;28.63;;;20.77;;
19566;SDS011;9930;49.240;8.548;2024-01-11T13:34:24;27.87;;;21.23;;
19566;SDS011;9930;49.240;8.548;2024-01-11T13:37:07;27.40;;;19.50;;
19566;SDS011;9930;49.240;8.548;2024-01-11T13:39:34;26.20;;;18.93;;
19566;SDS011;9930;49.240;8.548;2024-01-11T13:42:03;26.90;;;19.20;;
19566;SDS011;9930;49.240;8.548;2024-01-11T13:44:44;25.83;;;20.23;;
19566;SDS011;9930;49.240;8.548;2024-01-11T13:47:19;27.73;;;20.40;;
19566;SDS011;9930;49.240;8.548;2024-01-11T13:50:24;26.03;;;19.27;;
19566;SDS011;9930;49.240;8.548;2024-01-11T13:53:02;28.30;;;18.83;;
19566;SDS011;9930;49.240;8.548;2024-01-11T13:55:31;25.63;;;19.67;;
19566;SDS011;9930;49.240;8.548;2024-01-11T13:58:15;25.93;;;19.97;;
19566;SDS011;9930;49.240;8.548;2024-01-11T14:00:52;25.83;;;19.60;;
19566;SDS011;9930;49.240;8.548;2024-01-11T14:03:20;26.23;;;19.23;;
19566;SDS011;9930;49.240;8.548;2024-01-11T14:05:49;28.47;;;21.47;;
19566;SDS011;9930;49.240;8.548;2024-01-11T14:08:15;30.63;;;22.13;;
19566;SDS011;9930;49.240;8.548;2024-01-11T14:10:48;28.33;;;21.33;;
19566;SDS011;9930;49.240;8.548;2024-01-11T14:13:31;32.57;;;20.83;;
19566;SDS011;9930;49.240;8.548;2024-01-11T14:15:58;27.53;;;20.73;;
19566;SDS011;9930;49.240;8.548;2024-01-11T14:18:35;29.30;;;19.50;;
19566;SDS011;9930;49.240;8.548;2024-01-11T14:21:27;25.93;;;18.13;;
19566;SDS011;9930;49.240;8.548;2024-01-11T14:23:59;25.50;;;18.87;;
19566;SDS011;9930;49.240;8.548;2024-01-11T14:26:31;25.50;;;19.37;;
19566;SDS011;9930;49.240;8.548;2024-01-11T14:29:04;27.00;;;20.13;;
19566;SDS011;9930;49.240;8.548;2024-01-11T14:31:32;32.53;;;22.80;;
19566;SDS011;9930;49.240;8.548;2024-01-11T14:34:09;27.17;;;21.43;;
19566;SDS011;9930;49.240;8.548;2024-01-11T14:36:38;29.80;;;21.47;;
19566;SDS011;9930;49.240;8.548;2024-01-11T14:39:08;28.50;;;22.07;;
19566;SDS011;9930;49.240;8.548;2024-01-11T14:41:37;30.20;;;21.30;;
19566;SDS011;9930;49.240;8.548;2024-01-11T14:44:04;30.13;;;21.47;;
19566;SDS011;9930;49.240;8.548;2024-01-11T14:46:39;27.80;;;21.30;;
19566;SDS011;9930;49.240;8.548;2024-01-11T14:49:08;30.30;;;21.47;;
19566;SDS011;9930;49.240;8.548;2024-01-11T14:51:34;27.67;;;21.47;;
19566;SDS011;9930;49.240;8.548;2024-01-11T14:54:10;27.23;;;19.63;;
19566;SDS011;9930;49.240;8.548;2024-01-11T14:56:38;28.60;;;21.10;;
19566;SDS011;9930;49.240;8.548;2024-01-11T15:02:05;27.13;;;20.23;;
19566;SDS011;9930;49.240;8.548;2024-01-11T15:04:44;28.90;;;19.90;;
19566;SDS011;9930;49.240;8.548;2024-01-11T15:07:10;25.00;;;19.03;;